createdAt,value
2023-04-26T00:02:23.730Z,4.60
2023-04-26T00:05:09.692Z,4.60
2023-04-26T00:07:54.507Z,5.50
2023-04-26T00:10:40.598Z,6.67
2023-04-26T00:13:25.978Z,5.83
2023-04-26T00:16:10.033Z,5.37
2023-04-26T00:21:38.424Z,5.87
2023-04-26T00:24:22.482Z,5.90
2023-04-26T00:27:09.422Z,5.30
2023-04-26T00:29:55.002Z,8.43
2023-04-26T00:32:39.705Z,5.63
2023-04-26T00:35:24.738Z,6.20
2023-04-26T00:38:09.103Z,6.20
2023-04-26T00:40:53.066Z,8.67
2023-04-26T00:43:37.086Z,5.00
2023-04-26T00:46:22.581Z,4.80
2023-04-26T00:49:06.724Z,4.77
2023-04-26T00:51:52.721Z,5.37
2023-04-26T00:54:36.880Z,5.53
2023-04-26T00:57:21.337Z,10.47
2023-04-26T01:00:06.612Z,8.87
2023-04-26T01:02:53.082Z,7.40
2023-04-26T01:05:37.583Z,4.93
2023-04-26T01:08:21.968Z,5.20
2023-04-26T01:11:07.417Z,5.60
2023-04-26T01:13:52.888Z,6.20
2023-04-26T01:16:37.343Z,6.93
2023-04-26T01:19:23.571Z,5.43
2023-04-26T01:22:07.842Z,5.00
2023-04-26T01:24:56.528Z,5.47
2023-04-26T01:27:41.929Z,6.30
2023-04-26T01:30:25.926Z,7.60
2023-04-26T01:33:09.984Z,7.13
2023-04-26T01:35:54.035Z,7.33
2023-04-26T01:38:38.150Z,6.80
2023-04-26T01:41:24.621Z,8.13
2023-04-26T01:44:09.500Z,10.97
2023-04-26T01:46:53.258Z,12.37
2023-04-26T01:49:37.248Z,13.30
2023-04-26T01:52:21.540Z,17.57
2023-04-26T01:55:05.988Z,19.40
2023-04-26T01:57:51.208Z,23.60
2023-04-26T02:00:35.309Z,21.53
2023-04-26T02:03:19.326Z,28.03
2023-04-26T02:06:03.344Z,16.73
2023-04-26T02:08:47.344Z,13.70
2023-04-26T02:11:31.169Z,12.37
2023-04-26T02:14:16.882Z,9.90
2023-04-26T02:17:01.362Z,10.83
2023-04-26T02:19:45.653Z,8.33
2023-04-26T02:22:29.896Z,11.13
2023-04-26T02:25:13.814Z,9.10
2023-04-26T02:27:57.671Z,9.10
2023-04-26T02:30:43.408Z,8.57
2023-04-26T02:33:28.077Z,7.77
2023-04-26T02:36:12.063Z,7.90
2023-04-26T02:38:55.915Z,10.60
2023-04-26T02:41:40.104Z,10.87
2023-04-26T02:44:24.048Z,9.47
2023-04-26T02:47:09.671Z,8.07
2023-04-26T02:49:53.995Z,9.43
2023-04-26T02:52:38.343Z,8.10
2023-04-26T02:55:22.426Z,8.20
2023-04-26T02:58:07.816Z,6.77
2023-04-26T03:00:51.682Z,7.60
2023-04-26T03:03:37.531Z,7.77
2023-04-26T03:06:21.579Z,10.03
2023-04-26T03:09:05.926Z,8.63
2023-04-26T03:11:50.433Z,7.93
2023-04-26T03:14:34.709Z,9.10
2023-04-26T03:17:19.204Z,9.63
2023-04-26T03:20:06.306Z,6.60
2023-04-26T03:22:51.578Z,10.10
2023-04-26T03:25:35.987Z,6.03
2023-04-26T03:28:20.083Z,7.43
2023-04-26T03:31:04.146Z,7.70
2023-04-26T03:33:48.829Z,7.40
2023-04-26T03:36:34.012Z,9.03
2023-04-26T03:39:19.072Z,6.77
2023-04-26T03:42:04.148Z,6.80
2023-04-26T03:44:48.269Z,7.10
2023-04-26T03:47:33.030Z,6.63
2023-04-26T03:50:17.098Z,6.23
2023-04-26T03:53:03.925Z,7.57
2023-04-26T03:55:47.914Z,6.73
2023-04-26T03:58:32.113Z,12.27
2023-04-26T04:01:15.950Z,7.60
2023-04-26T04:04:00.786Z,7.97
2023-04-26T04:06:46.327Z,13.00
2023-04-26T04:09:31.629Z,8.40
2023-04-26T04:12:15.415Z,7.63
2023-04-26T04:15:00.861Z,8.90
2023-04-26T04:17:51.015Z,9.00
2023-04-26T04:20:35.105Z,8.30
2023-04-26T04:23:19.278Z,9.60
2023-04-26T04:26:04.610Z,14.00
2023-04-26T04:28:49.092Z,9.80
2023-04-26T04:31:34.010Z,8.37
2023-04-26T04:34:18.067Z,8.17
2023-04-26T04:37:04.343Z,8.47
2023-04-26T04:39:48.419Z,7.43
2023-04-26T04:42:35.045Z,7.37
2023-04-26T04:45:22.182Z,9.17
2023-04-26T04:48:09.198Z,9.80
2023-04-26T04:50:53.652Z,11.37
2023-04-26T04:53:38.171Z,7.87
2023-04-26T04:56:22.693Z,11.00
2023-04-26T04:59:08.718Z,7.00
2023-04-26T05:01:53.653Z,7.43
2023-04-26T05:04:38.482Z,17.60
2023-04-26T05:07:24.436Z,16.93
2023-04-26T05:10:11.356Z,9.40
2023-04-26T05:12:55.513Z,10.67
2023-04-26T05:15:41.399Z,9.67
2023-04-26T05:18:25.345Z,8.83
2023-04-26T05:21:09.221Z,10.80
2023-04-26T05:23:53.375Z,7.43
2023-04-26T05:26:37.712Z,49.97
2023-04-26T05:29:40.092Z,13.63
2023-04-26T05:32:42.870Z,14.97
2023-04-26T05:35:54.259Z,11.33
2023-04-26T05:38:39.201Z,17.03
2023-04-26T05:41:23.173Z,12.90
2023-04-26T05:44:07.312Z,10.93
2023-04-26T05:46:51.866Z,22.33
2023-04-26T05:49:37.251Z,31.33
2023-04-26T05:52:21.541Z,16.77
2023-04-26T05:55:07.826Z,13.47
2023-04-26T05:57:53.143Z,18.37
2023-04-26T06:00:38.608Z,16.07
2023-04-26T06:03:24.980Z,19.57
2023-04-26T06:06:11.283Z,23.07
2023-04-26T06:08:57.429Z,19.53
2023-04-26T06:11:41.235Z,22.67
2023-04-26T06:14:30.400Z,24.23
2023-04-26T06:17:20.129Z,22.47
2023-04-26T06:20:05.186Z,21.60
2023-04-26T06:23:07.305Z,20.92
2023-04-26T06:25:51.477Z,22.77
2023-04-26T06:28:36.003Z,25.20
2023-04-26T06:31:21.892Z,25.97
2023-04-26T06:34:07.115Z,17.60
2023-04-26T06:36:52.695Z,20.20
2023-04-26T06:39:40.278Z,17.05
2023-04-26T06:42:24.808Z,19.13
2023-04-26T06:45:47.203Z,16.07
2023-04-26T06:48:31.178Z,19.17
2023-04-26T06:51:14.947Z,15.63
2023-04-26T06:53:59.200Z,19.02
2023-04-26T06:56:44.450Z,22.40
2023-04-26T06:59:28.487Z,21.90
2023-04-26T07:02:13.367Z,19.65
2023-04-26T07:04:59.657Z,24.23
2023-04-26T07:07:43.899Z,21.30
2023-04-26T07:10:27.964Z,26.45
2023-04-26T07:13:13.431Z,36.58
2023-04-26T07:15:57.805Z,28.35
2023-04-26T07:18:42.180Z,34.30
2023-04-26T07:21:27.035Z,33.45
2023-04-26T07:24:11.163Z,39.20
2023-04-26T07:26:55.472Z,37.67
2023-04-26T07:29:41.109Z,42.00
2023-04-26T07:32:25.162Z,43.70
2023-04-26T07:35:16.288Z,47.35
2023-04-26T07:38:00.661Z,62.83
2023-04-26T07:40:45.164Z,74.15
2023-04-26T07:43:29.441Z,68.88
2023-04-26T07:46:15.098Z,73.97
2023-04-26T07:48:59.339Z,71.88
2023-04-26T07:51:45.880Z,68.65
2023-04-26T07:54:30.101Z,75.80
2023-04-26T07:57:14.133Z,55.13
2023-04-26T07:59:58.161Z,45.28
2023-04-26T08:02:45.502Z,56.30
2023-04-26T08:05:30.208Z,51.67
2023-04-26T08:08:15.426Z,47.95
2023-04-26T08:11:00.126Z,53.38
2023-04-26T08:13:45.341Z,43.42
2023-04-26T08:16:29.511Z,39.58
2023-04-26T08:19:15.143Z,43.53
2023-04-26T08:21:59.191Z,46.03
2023-04-26T08:24:43.218Z,44.90
2023-04-26T08:27:28.448Z,39.58
2023-04-26T08:30:13.345Z,36.72
2023-04-26T08:32:57.562Z,38.63
2023-04-26T08:35:43.129Z,32.53
2023-04-26T08:38:27.163Z,35.85
2023-04-26T08:41:15.177Z,42.85
2023-04-26T08:44:01.728Z,36.72
2023-04-26T08:46:52.446Z,26.27
2023-04-26T08:49:42.526Z,26.98
2023-04-26T08:52:30.430Z,25.42
2023-04-26T08:55:17.694Z,27.75
2023-04-26T08:58:03.934Z,23.95
2023-04-26T09:00:48.701Z,23.10
2023-04-26T09:03:33.083Z,21.60
2023-04-26T09:06:18.116Z,20.25
2023-04-26T09:09:05.525Z,20.73
2023-04-26T09:11:57.990Z,20.65
2023-04-26T09:14:42.184Z,23.17
2023-04-26T09:17:30.968Z,20.08
2023-04-26T09:20:23.878Z,18.30
2023-04-26T09:23:09.318Z,19.95
2023-04-26T09:25:55.041Z,19.15
2023-04-26T09:28:38.994Z,19.17
2023-04-26T09:31:39.533Z,19.08
2023-04-26T09:34:23.667Z,17.85
2023-04-26T09:37:14.010Z,18.48
2023-04-26T09:39:58.115Z,17.50
2023-04-26T09:42:43.748Z,15.85
2023-04-26T09:45:28.789Z,16.65
2023-04-26T09:48:18.052Z,14.13
2023-04-26T09:51:11.586Z,15.30
2023-04-26T09:53:56.765Z,15.32
2023-04-26T09:56:40.990Z,15.10
2023-04-26T09:59:27.058Z,14.70
2023-04-26T10:02:18.549Z,15.25
2023-04-26T10:05:03.209Z,15.60
2023-04-26T10:07:48.733Z,27.40
2023-04-26T10:10:33.263Z,16.23
2023-04-26T10:13:18.377Z,16.88
2023-04-26T10:16:05.032Z,16.35
2023-04-26T10:18:49.669Z,16.33
2023-04-26T10:21:38.496Z,16.70
2023-04-26T10:24:25.215Z,18.23
2023-04-26T10:27:09.261Z,16.42
2023-04-26T10:30:10.327Z,17.65
2023-04-26T10:33:17.860Z,16.83
2023-04-26T10:36:08.822Z,16.65
2023-04-26T10:39:20.516Z,15.65
2023-04-26T10:42:26.018Z,16.92
2023-04-26T10:45:28.619Z,15.45
2023-04-26T10:48:17.712Z,16.95
2023-04-26T10:51:13.725Z,20.10
2023-04-26T10:54:02.330Z,16.30
2023-04-26T10:56:53.453Z,16.27
2023-04-26T10:59:51.247Z,16.55
2023-04-26T11:02:51.091Z,17.38
2023-04-26T11:05:43.446Z,14.32
2023-04-26T11:08:30.699Z,16.58
2023-04-26T11:11:15.098Z,16.15
2023-04-26T11:14:03.595Z,13.30
2023-04-26T11:16:47.696Z,15.05
2023-04-26T11:19:31.785Z,14.73
2023-04-26T11:22:15.842Z,13.82
2023-04-26T11:25:03.339Z,14.60
2023-04-26T11:27:47.533Z,9.93
2023-04-26T11:30:32.933Z,5.18
2023-04-26T11:33:23.145Z,6.75
2023-04-26T11:36:07.912Z,4.45
2023-04-26T11:38:52.344Z,4.93
2023-04-26T11:41:38.005Z,4.47
2023-04-26T11:44:22.500Z,4.18
2023-04-26T11:47:08.253Z,4.32
2023-04-26T11:49:52.585Z,4.60
2023-04-26T11:52:36.857Z,4.45
2023-04-26T11:55:25.764Z,3.92
2023-04-26T11:58:15.943Z,4.75
2023-04-26T12:01:01.983Z,4.28
2023-04-26T12:03:52.214Z,2.80
2023-04-26T12:06:44.432Z,2.65
2023-04-26T12:09:29.919Z,3.80
2023-04-26T12:12:13.856Z,1.80
2023-04-26T12:14:59.496Z,1.48
2023-04-26T12:17:53.754Z,1.45
2023-04-26T12:20:40.265Z,1.38
2023-04-26T12:23:24.855Z,1.30
2023-04-26T12:26:11.301Z,1.38
2023-04-26T12:28:55.402Z,1.45
2023-04-26T12:31:41.780Z,1.80
2023-04-26T12:34:26.319Z,1.80
2023-04-26T12:37:10.858Z,1.55
2023-04-26T12:39:54.953Z,0.93
2023-04-26T12:42:39.340Z,1.27
2023-04-26T12:45:24.232Z,2.83
2023-04-26T12:48:09.906Z,1.10
2023-04-26T12:50:53.927Z,5.75
2023-04-26T12:53:37.953Z,7.93
2023-04-26T12:56:22.122Z,11.43
2023-04-26T12:59:06.680Z,17.98
2023-04-26T13:01:50.839Z,11.35
2023-04-26T13:04:40.207Z,12.52
2023-04-26T13:07:25.452Z,7.80
2023-04-26T13:10:13.096Z,7.85
2023-04-26T13:12:58.381Z,8.63
2023-04-26T13:15:42.653Z,11.05
2023-04-26T13:18:26.969Z,9.80
2023-04-26T13:21:12.761Z,13.48
2023-04-26T13:23:56.887Z,9.98
2023-04-26T13:26:41.082Z,11.93
2023-04-26T13:29:25.959Z,10.57
2023-04-26T13:32:10.304Z,9.75
2023-04-26T13:34:55.225Z,9.98
2023-04-26T13:37:41.794Z,11.15
2023-04-26T13:40:25.854Z,12.40
2023-04-26T13:43:09.994Z,13.30
2023-04-26T13:45:54.007Z,13.23
2023-04-26T13:48:38.228Z,12.40
2023-04-26T13:51:22.420Z,10.55
2023-04-26T13:54:08.203Z,14.45
2023-04-26T13:56:52.329Z,11.05
2023-04-26T13:59:37.310Z,11.30
2023-04-26T14:02:21.692Z,10.88
2023-04-26T14:05:07.176Z,10.60
2023-04-26T14:07:53.552Z,11.73
2023-04-26T14:10:40.348Z,9.95
2023-04-26T14:13:24.497Z,12.02
2023-04-26T14:16:10.816Z,11.25
2023-04-26T14:18:55.125Z,13.40
2023-04-26T14:21:39.101Z,11.65
2023-04-26T14:24:23.021Z,11.65
2023-04-26T14:27:08.412Z,10.07
2023-04-26T14:29:52.547Z,9.23
2023-04-26T14:32:36.767Z,10.25
2023-04-26T14:35:21.003Z,9.00
2023-04-26T14:38:05.095Z,9.82
2023-04-26T14:40:49.186Z,10.27
2023-04-26T14:43:35.074Z,11.55
2023-04-26T14:46:19.268Z,9.35
2023-04-26T14:49:03.364Z,8.60
2023-04-26T14:51:47.486Z,8.38
2023-04-26T14:54:31.619Z,10.50
2023-04-26T14:57:16.005Z,10.35
2023-04-26T15:00:07.138Z,9.73
2023-04-26T15:02:52.365Z,9.60
2023-04-26T15:05:36.643Z,10.10
2023-04-26T15:08:21.582Z,9.90
2023-04-26T15:11:06.144Z,10.90
2023-04-26T15:13:50.534Z,9.32
2023-04-26T15:16:36.459Z,12.40
2023-04-26T15:19:21.223Z,10.07
2023-04-26T15:22:06.125Z,10.07
2023-04-26T15:24:51.269Z,10.98
2023-04-26T15:27:40.030Z,10.38
2023-04-26T15:30:24.310Z,10.68
2023-04-26T15:33:13.080Z,14.13
2023-04-26T15:35:57.459Z,14.35
2023-04-26T15:38:45.281Z,10.38
2023-04-26T15:41:30.146Z,11.38
2023-04-26T15:44:14.787Z,9.80
2023-04-26T15:46:59.325Z,13.23
2023-04-26T15:49:45.044Z,13.65
2023-04-26T15:52:29.089Z,11.07
2023-04-26T15:55:13.481Z,12.25
2023-04-26T15:57:57.710Z,20.98
2023-04-26T16:00:42.132Z,13.07
2023-04-26T16:03:26.730Z,11.43
2023-04-26T16:06:12.650Z,12.98
2023-04-26T16:08:57.158Z,13.27
2023-04-26T16:11:41.265Z,11.45
2023-04-26T16:14:25.378Z,12.82
2023-04-26T16:17:09.670Z,12.67
2023-04-26T16:19:53.693Z,13.98
2023-04-26T16:22:39.355Z,12.63
2023-04-26T16:25:23.690Z,13.48
2023-04-26T16:28:10.062Z,13.52
2023-04-26T16:30:56.068Z,14.15
2023-04-26T16:33:40.129Z,12.77
2023-04-26T16:36:25.212Z,14.97
2023-04-26T16:39:14.153Z,14.70
2023-04-26T16:41:59.759Z,15.03
2023-04-26T16:44:43.934Z,16.77
2023-04-26T16:47:28.075Z,17.17
2023-04-26T16:50:12.704Z,16.80
2023-04-26T16:52:56.886Z,17.85
2023-04-26T16:55:42.303Z,20.10
2023-04-26T16:58:27.104Z,16.47
2023-04-26T17:01:11.116Z,16.40
2023-04-26T17:03:55.482Z,15.20
2023-04-26T17:06:39.765Z,14.77
2023-04-26T17:09:23.807Z,17.27
2023-04-26T17:12:09.680Z,17.02
2023-04-26T17:14:53.609Z,20.73
2023-04-26T17:17:37.672Z,19.58
2023-04-26T17:20:22.154Z,18.48
2023-04-26T17:23:08.140Z,17.88
2023-04-26T17:25:54.374Z,20.50
2023-04-26T17:28:41.728Z,16.63
2023-04-26T17:31:25.857Z,18.40
2023-04-26T17:34:10.165Z,16.13
2023-04-26T17:36:54.225Z,19.23
2023-04-26T17:39:38.479Z,16.53
2023-04-26T17:42:22.562Z,16.67
2023-04-26T17:45:10.356Z,21.42
2023-04-26T17:47:56.251Z,18.08
2023-04-26T17:50:40.331Z,17.42
2023-04-26T17:53:24.586Z,17.88
2023-04-26T17:56:10.090Z,18.17
2023-04-26T17:58:54.208Z,16.38
2023-04-26T18:01:39.749Z,16.53
2023-04-26T18:04:24.293Z,16.35
2023-04-26T18:07:08.406Z,17.30
2023-04-26T18:09:52.657Z,18.50
2023-04-26T18:12:36.850Z,18.03
2023-04-26T18:15:20.943Z,17.93
2023-04-26T18:18:08.289Z,36.97
2023-04-26T18:20:52.465Z,19.27
2023-04-26T18:23:36.439Z,19.90
2023-04-26T18:26:20.616Z,17.00
2023-04-26T18:29:04.656Z,18.77
2023-04-26T18:31:49.742Z,14.83
2023-04-26T18:34:35.394Z,17.10
2023-04-26T18:37:20.393Z,13.03
2023-04-26T18:40:05.199Z,13.60
2023-04-26T18:42:49.443Z,13.70
2023-04-26T18:45:34.331Z,13.13
2023-04-26T18:48:18.428Z,12.57
2023-04-26T18:51:04.049Z,15.13
2023-04-26T18:53:48.297Z,22.30
2023-04-26T18:56:32.931Z,15.37
2023-04-26T18:59:16.938Z,16.10
2023-04-26T19:02:01.786Z,14.40
2023-04-26T19:04:48.175Z,13.87
2023-04-26T19:07:35.585Z,20.07
2023-04-26T19:10:19.758Z,14.80
2023-04-26T19:13:05.034Z,13.70
2023-04-26T19:15:49.421Z,15.17
2023-04-26T19:18:33.717Z,14.17
2023-04-26T19:21:17.944Z,15.17
2023-04-26T19:24:04.618Z,14.50
2023-04-26T19:26:48.844Z,12.07
2023-04-26T19:29:32.867Z,11.10
2023-04-26T19:32:19.259Z,11.67
2023-04-26T19:35:05.119Z,11.07
2023-04-26T19:37:49.455Z,9.57
2023-04-26T19:40:35.109Z,9.00
2023-04-26T19:43:19.393Z,8.30
2023-04-26T19:46:03.661Z,8.50
2023-04-26T19:48:47.948Z,9.90
2023-04-26T19:51:32.322Z,12.00
2023-04-26T19:54:21.160Z,13.83
2023-04-26T19:57:06.900Z,10.47
2023-04-26T19:59:51.255Z,9.40
2023-04-26T20:02:35.695Z,10.53
2023-04-26T20:05:20.374Z,9.10
2023-04-26T20:08:04.565Z,8.87
2023-04-26T20:10:48.797Z,8.63
2023-04-26T20:13:34.492Z,9.73
2023-04-26T20:16:19.178Z,7.30
2023-04-26T20:19:03.649Z,8.23
2023-04-26T20:21:47.880Z,7.40
2023-04-26T20:24:32.054Z,8.27
2023-04-26T20:27:16.536Z,9.87
2023-04-26T20:30:02.411Z,12.57
2023-04-26T20:32:48.338Z,10.67
2023-04-26T20:35:32.545Z,11.83
2023-04-26T20:38:16.836Z,16.70
2023-04-26T20:41:01.133Z,10.67
2023-04-26T20:43:45.229Z,10.57
2023-04-26T20:46:31.020Z,11.13
2023-04-26T20:49:15.964Z,10.30
2023-04-26T20:52:00.103Z,11.07
2023-04-26T20:54:44.312Z,14.07
2023-04-26T20:57:28.467Z,11.80
2023-04-26T21:00:13.374Z,15.43
2023-04-26T21:02:59.078Z,19.73
2023-04-26T21:05:43.210Z,15.57
2023-04-26T21:08:27.278Z,16.13
2023-04-26T21:11:11.265Z,15.13
2023-04-26T21:13:55.309Z,14.10
2023-04-26T21:16:39.426Z,11.00
2023-04-26T21:19:24.917Z,10.60
2023-04-26T21:22:09.738Z,10.97
2023-04-26T21:24:53.852Z,13.33
2023-04-26T21:27:37.940Z,9.83
2023-04-26T21:30:22.088Z,9.60
2023-04-26T21:33:07.515Z,7.93
2023-04-26T21:35:52.938Z,8.07
2023-04-26T21:38:37.034Z,11.60
2023-04-26T21:41:21.090Z,11.30
2023-04-26T21:44:05.116Z,7.70
2023-04-26T21:46:49.179Z,11.83
2023-04-26T21:49:33.248Z,8.20
2023-04-26T21:52:18.980Z,6.63
2023-04-26T21:55:03.848Z,8.90
2023-04-26T21:57:47.916Z,5.80
2023-04-26T22:00:31.914Z,4.00
2023-04-26T22:03:16.633Z,5.93
2023-04-26T22:06:00.659Z,6.93
2023-04-26T22:08:46.240Z,5.13
2023-04-26T22:11:30.241Z,7.83
2023-04-26T22:14:14.251Z,6.23
2023-04-26T22:16:58.267Z,7.23
2023-04-26T22:19:42.295Z,7.00
2023-04-26T22:22:26.387Z,6.30
2023-04-26T22:25:12.089Z,7.40
2023-04-26T22:27:56.144Z,5.10
2023-04-26T22:30:40.093Z,4.97
2023-04-26T22:33:24.202Z,6.73
2023-04-26T23:05:55.562Z,2.67
2023-04-26T23:08:39.538Z,2.70
2023-04-26T23:11:23.546Z,2.57
2023-04-26T23:14:07.726Z,2.97
2023-04-26T23:16:52.277Z,2.17
2023-04-26T23:19:36.731Z,2.00
2023-04-26T23:22:22.429Z,2.10
2023-04-26T23:25:07.350Z,1.77
2023-04-26T23:27:51.310Z,1.87
2023-04-26T23:30:36.052Z,1.73
2023-04-26T23:33:20.145Z,1.10
2023-04-26T23:36:04.324Z,1.50
2023-04-26T23:38:49.688Z,1.80
2023-04-26T23:41:33.840Z,1.40
2023-04-26T23:44:17.922Z,2.00
2023-04-26T23:47:02.104Z,1.37
2023-04-26T23:49:46.317Z,1.70
2023-04-26T23:52:30.239Z,1.93
2023-04-26T23:55:15.579Z,2.00
2023-04-26T23:57:59.587Z,5.90
